sensor_id;sensor_type;location;lat;lon;timestamp;pressure;altitude;pressure_sealevel;temperature
71897;BMP280;59767;51.344;12.362;2022-12-16T00:01:33;157207.00;;;-5.42
71897;BMP280;59767;51.344;12.362;2022-12-16T00:04:37;157214.75;;;-5.39
71897;BMP280;59767;51.344;12.362;2022-12-16T00:07:41;157201.78;;;-5.44
71897;BMP280;59767;51.344;12.362;2022-12-16T00:10:45;157191.47;;;-5.48
71897;BMP280;59767;51.344;12.362;2022-12-16T00:13:57;157218.63;;;-5.37
71897;BMP280;59767;51.344;12.362;2022-12-16T00:17:01;157203.09;;;-5.43
71897;BMP280;59767;51.344;12.362;2022-12-16T00:20:06;157209.56;;;-5.41
71897;BMP280;59767;51.344;12.362;2022-12-16T00:23:10;157190.16;;;-5.48
71897;BMP280;59767;51.344;12.362;2022-12-16T00:26:14;157186.25;;;-5.50
71897;BMP280;59767;51.344;12.362;2022-12-16T00:29:18;157175.81;;;-5.54
71897;BMP280;59767;51.344;12.362;2022-12-16T00:32:22;157178.44;;;-5.53
71897;BMP280;59767;51.344;12.362;2022-12-16T00:35:27;157168.06;;;-5.57
71897;BMP280;59767;51.344;12.362;2022-12-16T00:38:32;157166.81;;;-5.57
71897;BMP280;59767;51.344;12.362;2022-12-16T00:41:36;157160.28;;;-5.60
71897;BMP280;59767;51.344;12.362;2022-12-16T00:44:40;157135.66;;;-5.69
71897;BMP280;59767;51.344;12.362;2022-12-16T00:47:45;157144.78;;;-5.66
71897;BMP280;59767;51.344;12.362;2022-12-16T00:50:51;157157.72;;;-5.61
71897;BMP280;59767;51.344;12.362;2022-12-16T00:53:58;157152.53;;;-5.63
71897;BMP280;59767;51.344;12.362;2022-12-16T00:57:02;157160.28;;;-5.60
71897;BMP280;59767;51.344;12.362;2022-12-16T01:00:08;157152.53;;;-5.63
71897;BMP280;59767;51.344;12.362;2022-12-16T01:03:15;157155.09;;;-5.62
71897;BMP280;59767;51.344;12.362;2022-12-16T01:06:36;157153.84;;;-5.62
71897;BMP280;59767;51.344;12.362;2022-12-16T01:09:40;157161.59;;;-5.59
71897;BMP280;59767;51.344;12.362;2022-12-16T01:12:44;157156.41;;;-5.61
71897;BMP280;59767;51.344;12.362;2022-12-16T01:15:49;157178.44;;;-5.53
71897;BMP280;59767;51.344;12.362;2022-12-16T01:18:53;157187.56;;;-5.49
71897;BMP280;59767;51.344;12.362;2022-12-16T01:21:59;157195.34;;;-5.46
71897;BMP280;59767;51.344;12.362;2022-12-16T01:25:03;157196.59;;;-5.46
71897;BMP280;59767;51.344;12.362;2022-12-16T01:28:08;157190.16;;;-5.48
71897;BMP280;59767;51.344;12.362;2022-12-16T01:31:14;157203.09;;;-5.43
71897;BMP280;59767;51.344;12.362;2022-12-16T01:34:19;157210.88;;;-5.40
71897;BMP280;59767;51.344;12.362;2022-12-16T01:37:23;157212.19;;;-5.40
71897;BMP280;59767;51.344;12.362;2022-12-16T01:40:28;157216.06;;;-5.38
71897;BMP280;59767;51.344;12.362;2022-12-16T01:43:34;157191.47;;;-5.48
71897;BMP280;59767;51.344;12.362;2022-12-16T01:46:41;157181.06;;;-5.52
71897;BMP280;59767;51.344;12.362;2022-12-16T01:53:02;157146.06;;;-5.65
71897;BMP280;59767;51.344;12.362;2022-12-16T01:56:07;157147.34;;;-5.65
71897;BMP280;59767;51.344;12.362;2022-12-16T01:59:16;157116.25;;;-5.77
71897;BMP280;59767;51.344;12.362;2022-12-16T02:02:22;157117.56;;;-5.76
71897;BMP280;59767;51.344;12.362;2022-12-16T02:05:27;157112.34;;;-5.78
71897;BMP280;59767;51.344;12.362;2022-12-16T02:08:31;157104.59;;;-5.81
71897;BMP280;59767;51.344;12.362;2022-12-16T02:12:23;157103.28;;;-5.82
71897;BMP280;59767;51.344;12.362;2022-12-16T02:15:30;157079.94;;;-5.91
71897;BMP280;59767;51.344;12.362;2022-12-16T02:35:29;157082.53;;;-5.90
71897;BMP280;59767;51.344;12.362;2022-12-16T02:38:47;157094.16;;;-5.85
71897;BMP280;59767;51.344;12.362;2022-12-16T02:42:12;157099.34;;;-5.83
71897;BMP280;59767;51.344;12.362;2022-12-16T02:45:26;157094.16;;;-5.85
71897;BMP280;59767;51.344;12.362;2022-12-16T02:48:31;157096.78;;;-5.84
71897;BMP280;59767;51.344;12.362;2022-12-16T02:51:37;157098.03;;;-5.84
71897;BMP280;59767;51.344;12.362;2022-12-16T02:54:41;157094.16;;;-5.85
71897;BMP280;59767;51.344;12.362;2022-12-16T03:01:13;157101.91;;;-5.82
71897;BMP280;59767;51.344;12.362;2022-12-16T03:04:25;157082.53;;;-5.90
71897;BMP280;59767;51.344;12.362;2022-12-16T03:07:33;157077.31;;;-5.92
71897;BMP280;59767;51.344;12.362;2022-12-16T03:10:44;157054.00;;;-6.01
71897;BMP280;59767;51.344;12.362;2022-12-16T03:13:52;157047.53;;;-6.03
71897;BMP280;59767;51.344;12.362;2022-12-16T03:16:57;157041.03;;;-6.06
71897;BMP280;59767;51.344;12.362;2022-12-16T03:20:09;157004.75;;;-6.20
71897;BMP280;59767;51.344;12.362;2022-12-16T03:23:19;157003.44;;;-6.21
71897;BMP280;59767;51.344;12.362;2022-12-16T03:26:33;156989.19;;;-6.26
71897;BMP280;59767;51.344;12.362;2022-12-16T03:32:59;156982.69;;;-6.29
71897;BMP280;59767;51.344;12.362;2022-12-16T03:36:13;156972.38;;;-6.33
71897;BMP280;59767;51.344;12.362;2022-12-16T03:39:20;156973.66;;;-6.32
71897;BMP280;59767;51.344;12.362;2022-12-16T03:42:26;156971.03;;;-6.33
71897;BMP280;59767;51.344;12.362;2022-12-16T03:45:38;156969.78;;;-6.34
71897;BMP280;59767;51.344;12.362;2022-12-16T03:48:48;156959.41;;;-6.38
71897;BMP280;59767;51.344;12.362;2022-12-16T03:51:53;156956.78;;;-6.39
71897;BMP280;59767;51.344;12.362;2022-12-16T03:54:57;156981.44;;;-6.29
71897;BMP280;59767;51.344;12.362;2022-12-16T03:58:01;156945.16;;;-6.43
71897;BMP280;59767;51.344;12.362;2022-12-16T04:01:07;156952.91;;;-6.40
71897;BMP280;59767;51.344;12.362;2022-12-16T04:04:12;156961.97;;;-6.37
71897;BMP280;59767;51.344;12.362;2022-12-16T04:07:16;156965.91;;;-6.35
71897;BMP280;59767;51.344;12.362;2022-12-16T04:10:23;156960.72;;;-6.37
71897;BMP280;59767;51.344;12.362;2022-12-16T04:13:45;156968.47;;;-6.34
71897;BMP280;59767;51.344;12.362;2022-12-16T04:17:10;156961.97;;;-6.37
71897;BMP280;59767;51.344;12.362;2022-12-16T04:20:46;156974.94;;;-6.32
71897;BMP280;59767;51.344;12.362;2022-12-16T04:24:15;156991.75;;;-6.25
71897;BMP280;59767;51.344;12.362;2022-12-16T04:27:25;156973.66;;;-6.32
71897;BMP280;59767;51.344;12.362;2022-12-16T04:30:31;156978.81;;;-6.30
71897;BMP280;59767;51.344;12.362;2022-12-16T04:33:38;156986.56;;;-6.27
71897;BMP280;59767;51.344;12.362;2022-12-16T04:37:01;156998.31;;;-6.22
71897;BMP280;59767;51.344;12.362;2022-12-16T04:40:24;157004.75;;;-6.20
71897;BMP280;59767;51.344;12.362;2022-12-16T04:43:47;156999.56;;;-6.22
71897;BMP280;59767;51.344;12.362;2022-12-16T04:47:10;157006.06;;;-6.19
71897;BMP280;59767;51.344;12.362;2022-12-16T04:50:32;157000.88;;;-6.22
71897;BMP280;59767;51.344;12.362;2022-12-16T04:53:55;157007.31;;;-6.19
71897;BMP280;59767;51.344;12.362;2022-12-16T04:57:18;157021.59;;;-6.13
71897;BMP280;59767;51.344;12.362;2022-12-16T05:00:41;157015.13;;;-6.16
71897;BMP280;59767;51.344;12.362;2022-12-16T05:04:04;157020.28;;;-6.14
71897;BMP280;59767;51.344;12.362;2022-12-16T05:07:27;157031.97;;;-6.09
71897;BMP280;59767;51.344;12.362;2022-12-16T05:10:49;157026.78;;;-6.11
71897;BMP280;59767;51.344;12.362;2022-12-16T05:14:12;157029.34;;;-6.10
71897;BMP280;59767;51.344;12.362;2022-12-16T05:17:35;157035.84;;;-6.08
71897;BMP280;59767;51.344;12.362;2022-12-16T05:20:58;157026.78;;;-6.11
71897;BMP280;59767;51.344;12.362;2022-12-16T05:24:21;157029.34;;;-6.10
71897;BMP280;59767;51.344;12.362;2022-12-16T05:27:44;157017.72;;;-6.15
71897;BMP280;59767;51.344;12.362;2022-12-16T05:31:06;157020.28;;;-6.14
71897;BMP280;59767;51.344;12.362;2022-12-16T05:34:29;157019.00;;;-6.14
71897;BMP280;59767;51.344;12.362;2022-12-16T05:37:52;157028.03;;;-6.11
71897;BMP280;59767;51.344;12.362;2022-12-16T05:41:15;157017.72;;;-6.15
71897;BMP280;59767;51.344;12.362;2022-12-16T05:44:39;157009.94;;;-6.18
71897;BMP280;59767;51.344;12.362;2022-12-16T05:48:02;157007.31;;;-6.19
71897;BMP280;59767;51.344;12.362;2022-12-16T05:51:25;157013.81;;;-6.16
71897;BMP280;59767;51.344;12.362;2022-12-16T05:54:48;157017.72;;;-6.15
71897;BMP280;59767;51.344;12.362;2022-12-16T05:58:11;157011.19;;;-6.18
71897;BMP280;59767;51.344;12.362;2022-12-16T06:01:34;157006.06;;;-6.19
71897;BMP280;59767;51.344;12.362;2022-12-16T06:04:57;157008.63;;;-6.18
71897;BMP280;59767;51.344;12.362;2022-12-16T06:08:19;157017.72;;;-6.15
71897;BMP280;59767;51.344;12.362;2022-12-16T06:11:42;157035.84;;;-6.08
71897;BMP280;59767;51.344;12.362;2022-12-16T06:15:05;157031.97;;;-6.09
71897;BMP280;59767;51.344;12.362;2022-12-16T06:18:28;157020.28;;;-6.14
71897;BMP280;59767;51.344;12.362;2022-12-16T06:21:51;157033.28;;;-6.09
71897;BMP280;59767;51.344;12.362;2022-12-16T06:25:14;157042.34;;;-6.05
71897;BMP280;59767;51.344;12.362;2022-12-16T06:28:37;157030.72;;;-6.10
71897;BMP280;59767;51.344;12.362;2022-12-16T06:32:00;157055.31;;;-6.00
71897;BMP280;59767;51.344;12.362;2022-12-16T06:35:23;157055.31;;;-6.00
71897;BMP280;59767;51.344;12.362;2022-12-16T06:38:46;157051.41;;;-6.02
71897;BMP280;59767;51.344;12.362;2022-12-16T06:42:09;157051.41;;;-6.02
71897;BMP280;59767;51.344;12.362;2022-12-16T06:45:31;157064.38;;;-5.97
71897;BMP280;59767;51.344;12.362;2022-12-16T06:48:54;157079.94;;;-5.91
71897;BMP280;59767;51.344;12.362;2022-12-16T06:52:17;157073.44;;;-5.93
71897;BMP280;59767;51.344;12.362;2022-12-16T06:55:40;157069.56;;;-5.95
71897;BMP280;59767;51.344;12.362;2022-12-16T06:59:03;157050.09;;;-6.02
71897;BMP280;59767;51.344;12.362;2022-12-16T07:02:26;157037.16;;;-6.07
71897;BMP280;59767;51.344;12.362;2022-12-16T07:05:53;157028.03;;;-6.11
71897;BMP280;59767;51.344;12.362;2022-12-16T07:09:15;157019.00;;;-6.14
71897;BMP280;59767;51.344;12.362;2022-12-16T07:12:38;157002.19;;;-6.21
71897;BMP280;59767;51.344;12.362;2022-12-16T07:16:01;156999.56;;;-6.22
71897;BMP280;59767;51.344;12.362;2022-12-16T07:19:24;156991.75;;;-6.25
71897;BMP280;59767;51.344;12.362;2022-12-16T07:22:46;156965.91;;;-6.35
71897;BMP280;59767;51.344;12.362;2022-12-16T07:26:20;156950.28;;;-6.41
71897;BMP280;59767;51.344;12.362;2022-12-16T07:29:43;156929.59;;;-6.49
71897;BMP280;59767;51.344;12.362;2022-12-16T07:33:06;156933.47;;;-6.48
71897;BMP280;59767;51.344;12.362;2022-12-16T07:36:29;156925.66;;;-6.51
71897;BMP280;59767;51.344;12.362;2022-12-16T07:39:52;156911.44;;;-6.56
71897;BMP280;59767;51.344;12.362;2022-12-16T07:43:15;156899.81;;;-6.61
71897;BMP280;59767;51.344;12.362;2022-12-16T07:46:38;156901.06;;;-6.60
71897;BMP280;59767;51.344;12.362;2022-12-16T07:50:01;156894.63;;;-6.63
71897;BMP280;59767;51.344;12.362;2022-12-16T07:53:24;156898.50;;;-6.61
71897;BMP280;59767;51.344;12.362;2022-12-16T07:56:46;156902.38;;;-6.60
71897;BMP280;59767;51.344;12.362;2022-12-16T08:00:09;156897.19;;;-6.62
71897;BMP280;59767;51.344;12.362;2022-12-16T08:03:32;156911.44;;;-6.56
71897;BMP280;59767;51.344;12.362;2022-12-16T08:06:55;156914.03;;;-6.55
71897;BMP280;59767;51.344;12.362;2022-12-16T08:10:18;156917.91;;;-6.54
71897;BMP280;59767;51.344;12.362;2022-12-16T08:13:41;156929.59;;;-6.49
71897;BMP280;59767;51.344;12.362;2022-12-16T08:17:04;156929.59;;;-6.49
71897;BMP280;59767;51.344;12.362;2022-12-16T08:20:26;156916.63;;;-6.54
71897;BMP280;59767;51.344;12.362;2022-12-16T08:23:49;156923.09;;;-6.52
71897;BMP280;59767;51.344;12.362;2022-12-16T08:27:12;156932.22;;;-6.48
71897;BMP280;59767;51.344;12.362;2022-12-16T08:30:35;156952.91;;;-6.40
71897;BMP280;59767;51.344;12.362;2022-12-16T08:33:59;156959.41;;;-6.38
71897;BMP280;59767;51.344;12.362;2022-12-16T08:37:21;156971.03;;;-6.33
71897;BMP280;59767;51.344;12.362;2022-12-16T08:40:44;156986.56;;;-6.27
71897;BMP280;59767;51.344;12.362;2022-12-16T08:44:07;156989.19;;;-6.26
71897;BMP280;59767;51.344;12.362;2022-12-16T08:47:29;156997.00;;;-6.23
71897;BMP280;59767;51.344;12.362;2022-12-16T08:50:52;157008.63;;;-6.18
71897;BMP280;59767;51.344;12.362;2022-12-16T08:54:14;157061.75;;;-5.98
71897;BMP280;59767;51.344;12.362;2022-12-16T08:57:37;157100.66;;;-5.83
71897;BMP280;59767;51.344;12.362;2022-12-16T09:01:00;157092.91;;;-5.86
71897;BMP280;59767;51.344;12.362;2022-12-16T09:04:22;157104.59;;;-5.81
71897;BMP280;59767;51.344;12.362;2022-12-16T09:07:45;157113.66;;;-5.78
71897;BMP280;59767;51.344;12.362;2022-12-16T09:11:08;157107.16;;;-5.80
71897;BMP280;59767;51.344;12.362;2022-12-16T09:14:31;157142.19;;;-5.67
71897;BMP280;59767;51.344;12.362;2022-12-16T09:17:55;157184.94;;;-5.50
71897;BMP280;59767;51.344;12.362;2022-12-16T09:21:17;157230.34;;;-5.33
71897;BMP280;59767;51.344;12.362;2022-12-16T09:24:40;157395.06;;;-4.69
71897;BMP280;59767;51.344;12.362;2022-12-16T09:28:03;157504.06;;;-4.27
71897;BMP280;59767;51.344;12.362;2022-12-16T09:31:26;157506.66;;;-4.26
71897;BMP280;59767;51.344;12.362;2022-12-16T09:34:49;157463.81;;;-4.42
71897;BMP280;59767;51.344;12.362;2022-12-16T09:38:16;157423.56;;;-4.58
71897;BMP280;59767;51.344;12.362;2022-12-16T09:41:42;157375.59;;;-4.76
71897;BMP280;59767;51.344;12.362;2022-12-16T09:45:16;157347.03;;;-4.87
71897;BMP280;59767;51.344;12.362;2022-12-16T09:52:36;157343.16;;;-4.89
71897;BMP280;59767;51.344;12.362;2022-12-16T09:56:03;157384.69;;;-4.73
71897;BMP280;59767;51.344;12.362;2022-12-16T09:59:29;157385.94;;;-4.72
71897;BMP280;59767;51.344;12.362;2022-12-16T10:02:56;157397.66;;;-4.68
71897;BMP280;59767;51.344;12.362;2022-12-16T10:06:32;157421.00;;;-4.59
71897;BMP280;59767;51.344;12.362;2022-12-16T10:10:15;157445.69;;;-4.49
71897;BMP280;59767;51.344;12.362;2022-12-16T10:13:57;157466.41;;;-4.41
71897;BMP280;59767;51.344;12.362;2022-12-16T10:17:24;157497.56;;;-4.29
71897;BMP280;59767;51.344;12.362;2022-12-16T10:20:53;157515.72;;;-4.22
71897;BMP280;59767;51.344;12.362;2022-12-16T10:24:26;157539.06;;;-4.13
71897;BMP280;59767;51.344;12.362;2022-12-16T10:28:00;157554.66;;;-4.07
71897;BMP280;59767;51.344;12.362;2022-12-16T10:31:28;157557.28;;;-4.06
71897;BMP280;59767;51.344;12.362;2022-12-16T10:34:50;157581.91;;;-3.97
71897;BMP280;59767;51.344;12.362;2022-12-16T10:38:23;157592.25;;;-3.92
71897;BMP280;59767;51.344;12.362;2022-12-16T10:41:49;157609.19;;;-3.86
71897;BMP280;59767;51.344;12.362;2022-12-16T10:45:27;157597.50;;;-3.90
71897;BMP280;59767;51.344;12.362;2022-12-16T10:48:49;157611.75;;;-3.85
71897;BMP280;59767;51.344;12.362;2022-12-16T10:52:13;157626.03;;;-3.79
71897;BMP280;59767;51.344;12.362;2022-12-16T10:56:00;157648.09;;;-3.71
71897;BMP280;59767;51.344;12.362;2022-12-16T10:59:34;157666.28;;;-3.64
71897;BMP280;59767;51.344;12.362;2022-12-16T11:03:21;157674.06;;;-3.61
71897;BMP280;59767;51.344;12.362;2022-12-16T11:06:44;157684.47;;;-3.57
71897;BMP280;59767;51.344;12.362;2022-12-16T11:10:35;157679.25;;;-3.59
71897;BMP280;59767;51.344;12.362;2022-12-16T11:14:23;157667.59;;;-3.63
71897;BMP280;59767;51.344;12.362;2022-12-16T11:18:18;157679.25;;;-3.59
71897;BMP280;59767;51.344;12.362;2022-12-16T11:21:42;157683.16;;;-3.57
71897;BMP280;59767;51.344;12.362;2022-12-16T11:25:15;157702.59;;;-3.50
71897;BMP280;59767;51.344;12.362;2022-12-16T11:28:37;157689.66;;;-3.55
71897;BMP280;59767;51.344;12.362;2022-12-16T11:32:21;157706.47;;;-3.48
71897;BMP280;59767;51.344;12.362;2022-12-16T11:35:53;157701.34;;;-3.50
71897;BMP280;59767;51.344;12.362;2022-12-16T11:39:20;157710.38;;;-3.47
71897;BMP280;59767;51.344;12.362;2022-12-16T11:42:44;157689.66;;;-3.55
71897;BMP280;59767;51.344;12.362;2022-12-16T11:46:24;157685.72;;;-3.56
71897;BMP280;59767;51.344;12.362;2022-12-16T11:49:49;157709.13;;;-3.47
71897;BMP280;59767;51.344;12.362;2022-12-16T11:56:42;157690.94;;;-3.54
71897;BMP280;59767;51.344;12.362;2022-12-16T12:00:12;157692.25;;;-3.54
71897;BMP280;59767;51.344;12.362;2022-12-16T12:03:41;157702.59;;;-3.50
71897;BMP280;59767;51.344;12.362;2022-12-16T12:07:27;157732.50;;;-3.38
71897;BMP280;59767;51.344;12.362;2022-12-16T12:21:57;157711.69;;;-3.46
71897;BMP280;59767;51.344;12.362;2022-12-16T12:25:38;157722.16;;;-3.42
71897;BMP280;59767;51.344;12.362;2022-12-16T12:29:19;157745.47;;;-3.33
71897;BMP280;59767;51.344;12.362;2022-12-16T12:33:05;157767.56;;;-3.25
71897;BMP280;59767;51.344;12.362;2022-12-16T12:36:40;157788.38;;;-3.17
71897;BMP280;59767;51.344;12.362;2022-12-16T12:40:21;157770.13;;;-3.24
71897;BMP280;59767;51.344;12.362;2022-12-16T12:47:21;157790.94;;;-3.16
71897;BMP280;59767;51.344;12.362;2022-12-16T12:50:56;157793.53;;;-3.15
71897;BMP280;59767;51.344;12.362;2022-12-16T12:57:52;157818.19;;;-3.05
71897;BMP280;59767;51.344;12.362;2022-12-16T13:01:17;157816.91;;;-3.06
71897;BMP280;59767;51.344;12.362;2022-12-16T13:04:43;157810.41;;;-3.08
71897;BMP280;59767;51.344;12.362;2022-12-16T13:15:39;157837.69;;;-2.98
71897;BMP280;59767;51.344;12.362;2022-12-16T13:22:51;157809.09;;;-3.09
71897;BMP280;59767;51.344;12.362;2022-12-16T13:26:15;157802.63;;;-3.11
71897;BMP280;59767;51.344;12.362;2022-12-16T13:29:39;157774.03;;;-3.22
71897;BMP280;59767;51.344;12.362;2022-12-16T13:33:29;157776.59;;;-3.21
71897;BMP280;59767;51.344;12.362;2022-12-16T13:36:57;157774.03;;;-3.22
71897;BMP280;59767;51.344;12.362;2022-12-16T13:48:03;157771.44;;;-3.23
71897;BMP280;59767;51.344;12.362;2022-12-16T13:55:14;157768.81;;;-3.24
71897;BMP280;59767;51.344;12.362;2022-12-16T13:59:00;157766.25;;;-3.25
71897;BMP280;59767;51.344;12.362;2022-12-16T14:02:28;157764.94;;;-3.26
71897;BMP280;59767;51.344;12.362;2022-12-16T14:05:53;157767.56;;;-3.25
71897;BMP280;59767;51.344;12.362;2022-12-16T14:09:29;157772.72;;;-3.23
71897;BMP280;59767;51.344;12.362;2022-12-16T14:13:27;157789.63;;;-3.16
71897;BMP280;59767;51.344;12.362;2022-12-16T14:17:01;157776.59;;;-3.21
71897;BMP280;59767;51.344;12.362;2022-12-16T14:20:36;157781.84;;;-3.19
71897;BMP280;59767;51.344;12.362;2022-12-16T14:24:19;157775.34;;;-3.22
71897;BMP280;59767;51.344;12.362;2022-12-16T14:27:44;157757.16;;;-3.29
71897;BMP280;59767;51.344;12.362;2022-12-16T14:31:24;157749.38;;;-3.32
71897;BMP280;59767;51.344;12.362;2022-12-16T14:35:00;157749.38;;;-3.32
71897;BMP280;59767;51.344;12.362;2022-12-16T14:38:24;157737.69;;;-3.36
71897;BMP280;59767;51.344;12.362;2022-12-16T14:41:50;157749.38;;;-3.32
71897;BMP280;59767;51.344;12.362;2022-12-16T14:48:45;157707.81;;;-3.48
71897;BMP280;59767;51.344;12.362;2022-12-16T14:55:38;157681.84;;;-3.58
71897;BMP280;59767;51.344;12.362;2022-12-16T14:59:12;157652.00;;;-3.69
71897;BMP280;59767;51.344;12.362;2022-12-16T15:02:39;157655.94;;;-3.68
71897;BMP280;59767;51.344;12.362;2022-12-16T15:06:11;157650.69;;;-3.70
71897;BMP280;59767;51.344;12.362;2022-12-16T15:09:43;157650.69;;;-3.70
71897;BMP280;59767;51.344;12.362;2022-12-16T15:13:14;157657.19;;;-3.67
71897;BMP280;59767;51.344;12.362;2022-12-16T15:16:38;157687.03;;;-3.56
71897;BMP280;59767;51.344;12.362;2022-12-16T15:20:01;157707.81;;;-3.48
71897;BMP280;59767;51.344;12.362;2022-12-16T15:23:27;157713.00;;;-3.46
71897;BMP280;59767;51.344;12.362;2022-12-16T15:34:31;157700.03;;;-3.51
71897;BMP280;59767;51.344;12.362;2022-12-16T15:37:54;157702.59;;;-3.50
71897;BMP280;59767;51.344;12.362;2022-12-16T15:41:22;157701.34;;;-3.50
71897;BMP280;59767;51.344;12.362;2022-12-16T15:44:48;157689.66;;;-3.55
71897;BMP280;59767;51.344;12.362;2022-12-16T15:48:27;157671.50;;;-3.62
71897;BMP280;59767;51.344;12.362;2022-12-16T15:51:51;157655.94;;;-3.68
71897;BMP280;59767;51.344;12.362;2022-12-16T15:55:35;157645.47;;;-3.72
71897;BMP280;59767;51.344;12.362;2022-12-16T16:02:47;157646.78;;;-3.71
71897;BMP280;59767;51.344;12.362;2022-12-16T16:06:20;157624.72;;;-3.80
71897;BMP280;59767;51.344;12.362;2022-12-16T16:09:43;157637.69;;;-3.75
71897;BMP280;59767;51.344;12.362;2022-12-16T16:13:06;157650.69;;;-3.70
71897;BMP280;59767;51.344;12.362;2022-12-16T16:16:29;157675.38;;;-3.60
71897;BMP280;59767;51.344;12.362;2022-12-16T16:19:52;157681.84;;;-3.58
71897;BMP280;59767;51.344;12.362;2022-12-16T16:23:14;157684.47;;;-3.57
71897;BMP280;59767;51.344;12.362;2022-12-16T16:26:38;157690.94;;;-3.54
71897;BMP280;59767;51.344;12.362;2022-12-16T16:30:02;157705.22;;;-3.49
71897;BMP280;59767;51.344;12.362;2022-12-16T16:33:24;157706.47;;;-3.48
71897;BMP280;59767;51.344;12.362;2022-12-16T16:36:52;157718.25;;;-3.44
71897;BMP280;59767;51.344;12.362;2022-12-16T16:40:30;157714.31;;;-3.45
71897;BMP280;59767;51.344;12.362;2022-12-16T16:43:53;157724.72;;;-3.41
71897;BMP280;59767;51.344;12.362;2022-12-16T16:47:22;157724.72;;;-3.41
71897;BMP280;59767;51.344;12.362;2022-12-16T16:50:44;157733.81;;;-3.38
71897;BMP280;59767;51.344;12.362;2022-12-16T16:54:07;157742.91;;;-3.34
71897;BMP280;59767;51.344;12.362;2022-12-16T16:57:33;157753.25;;;-3.30
71897;BMP280;59767;51.344;12.362;2022-12-16T17:00:56;157772.72;;;-3.23
71897;BMP280;59767;51.344;12.362;2022-12-16T17:04:19;157780.50;;;-3.20
71897;BMP280;59767;51.344;12.362;2022-12-16T17:07:41;157776.59;;;-3.21
71897;BMP280;59767;51.344;12.362;2022-12-16T17:11:14;157775.34;;;-3.22
71897;BMP280;59767;51.344;12.362;2022-12-16T17:14:38;157775.34;;;-3.22
71897;BMP280;59767;51.344;12.362;2022-12-16T17:18:01;157772.72;;;-3.23
71897;BMP280;59767;51.344;12.362;2022-12-16T17:21:24;157767.56;;;-3.25
71897;BMP280;59767;51.344;12.362;2022-12-16T17:24:47;157783.16;;;-3.19
71897;BMP280;59767;51.344;12.362;2022-12-16T17:28:10;157796.16;;;-3.14
71897;BMP280;59767;51.344;12.362;2022-12-16T17:31:46;157800.03;;;-3.12
71897;BMP280;59767;51.344;12.362;2022-12-16T17:35:12;157796.16;;;-3.14
71897;BMP280;59767;51.344;12.362;2022-12-16T17:38:40;157796.16;;;-3.14
71897;BMP280;59767;51.344;12.362;2022-12-16T17:42:03;157813.03;;;-3.07
71897;BMP280;59767;51.344;12.362;2022-12-16T17:45:25;157819.50;;;-3.05
71897;BMP280;59767;51.344;12.362;2022-12-16T17:48:53;157832.47;;;-3.00
71897;BMP280;59767;51.344;12.362;2022-12-16T17:52:16;157845.47;;;-2.95
71897;BMP280;59767;51.344;12.362;2022-12-16T17:55:38;157838.94;;;-2.97
71897;BMP280;59767;51.344;12.362;2022-12-16T17:59:01;157827.28;;;-3.02
71897;BMP280;59767;51.344;12.362;2022-12-16T18:02:24;157838.94;;;-2.97
71897;BMP280;59767;51.344;12.362;2022-12-16T18:05:54;157836.38;;;-2.98
71897;BMP280;59767;51.344;12.362;2022-12-16T18:09:18;157831.16;;;-3.00
71897;BMP280;59767;51.344;12.362;2022-12-16T18:12:41;157842.84;;;-2.96
71897;BMP280;59767;51.344;12.362;2022-12-16T18:16:03;157848.03;;;-2.94
71897;BMP280;59767;51.344;12.362;2022-12-16T18:19:26;157862.38;;;-2.88
71897;BMP280;59767;51.344;12.362;2022-12-16T18:22:52;157858.50;;;-2.90
71897;BMP280;59767;51.344;12.362;2022-12-16T18:26:15;157872.75;;;-2.84
71897;BMP280;59767;51.344;12.362;2022-12-16T18:29:38;157874.06;;;-2.84
71897;BMP280;59767;51.344;12.362;2022-12-16T18:33:01;157872.75;;;-2.84
71897;BMP280;59767;51.344;12.362;2022-12-16T18:36:24;157861.06;;;-2.89
71897;BMP280;59767;51.344;12.362;2022-12-16T18:39:47;157851.94;;;-2.92
71897;BMP280;59767;51.344;12.362;2022-12-16T18:43:10;157849.34;;;-2.93
71897;BMP280;59767;51.344;12.362;2022-12-16T18:46:33;157851.94;;;-2.92
71897;BMP280;59767;51.344;12.362;2022-12-16T18:49:55;157870.16;;;-2.85
71897;BMP280;59767;51.344;12.362;2022-12-16T18:53:18;157832.47;;;-3.00
71897;BMP280;59767;51.344;12.362;2022-12-16T18:56:41;157827.28;;;-3.02
71897;BMP280;59767;51.344;12.362;2022-12-16T19:00:04;157825.97;;;-3.02
71897;BMP280;59767;51.344;12.362;2022-12-16T19:03:27;157829.84;;;-3.01
71897;BMP280;59767;51.344;12.362;2022-12-16T19:06:50;157824.69;;;-3.03
71897;BMP280;59767;51.344;12.362;2022-12-16T19:10:12;157824.69;;;-3.03
71897;BMP280;59767;51.344;12.362;2022-12-16T19:13:35;157840.25;;;-2.97
71897;BMP280;59767;51.344;12.362;2022-12-16T19:16:58;157836.38;;;-2.98
71897;BMP280;59767;51.344;12.362;2022-12-16T19:20:21;157827.28;;;-3.02
71897;BMP280;59767;51.344;12.362;2022-12-16T19:23:43;157837.69;;;-2.98
71897;BMP280;59767;51.344;12.362;2022-12-16T19:27:06;157835.06;;;-2.99
71897;BMP280;59767;51.344;12.362;2022-12-16T19:30:29;157832.47;;;-3.00
71897;BMP280;59767;51.344;12.362;2022-12-16T19:33:53;157823.38;;;-3.03
71897;BMP280;59767;51.344;12.362;2022-12-16T19:37:16;157822.06;;;-3.04
71897;BMP280;59767;51.344;12.362;2022-12-16T19:40:39;157803.94;;;-3.11
71897;BMP280;59767;51.344;12.362;2022-12-16T19:44:02;157798.72;;;-3.13
71897;BMP280;59767;51.344;12.362;2022-12-16T19:47:25;157805.19;;;-3.10
71897;BMP280;59767;51.344;12.362;2022-12-16T19:50:47;157762.34;;;-3.27
71897;BMP280;59767;51.344;12.362;2022-12-16T19:54:10;157762.34;;;-3.27
71897;BMP280;59767;51.344;12.362;2022-12-16T19:57:33;157761.03;;;-3.27
71897;BMP280;59767;51.344;12.362;2022-12-16T20:01:01;157741.59;;;-3.35
71897;BMP280;59767;51.344;12.362;2022-12-16T20:04:31;157746.78;;;-3.33
71897;BMP280;59767;51.344;12.362;2022-12-16T20:07:54;157741.59;;;-3.35
71897;BMP280;59767;51.344;12.362;2022-12-16T20:11:17;157731.19;;;-3.39
71897;BMP280;59767;51.344;12.362;2022-12-16T20:14:40;157728.63;;;-3.40
71897;BMP280;59767;51.344;12.362;2022-12-16T20:18:03;157723.41;;;-3.42
71897;BMP280;59767;51.344;12.362;2022-12-16T20:21:26;157715.56;;;-3.45
71897;BMP280;59767;51.344;12.362;2022-12-16T20:24:53;157689.66;;;-3.55